sensor_id;sensor_type;location;lat;lon;timestamp;P1;durP1;ratioP1;P2;durP2;ratioP2
23304;SDS011;11821;51.456;8.844;2023-07-29T00:01:53;3.13;;;1.20;;
23304;SDS011;11821;51.456;8.844;2023-07-29T00:04:19;1.30;;;1.10;;
23304;SDS011;11821;51.456;8.844;2023-07-29T00:06:46;2.60;;;1.00;;
23304;SDS011;11821;51.456;8.844;2023-07-29T00:09:13;3.67;;;1.00;;
23304;SDS011;11821;51.456;8.844;2023-07-29T00:11:39;1.63;;;1.52;;
23304;SDS011;11821;51.456;8.844;2023-07-29T00:14:06;2.67;;;1.45;;
23304;SDS011;11821;51.456;8.844;2023-07-29T00:16:32;7.10;;;1.92;;
23304;SDS011;11821;51.456;8.844;2023-07-29T00:18:59;2.83;;;1.75;;
23304;SDS011;11821;51.456;8.844;2023-07-29T00:21:25;7.97;;;1.52;;
23304;SDS011;11821;51.456;8.844;2023-07-29T00:23:52;4.13;;;1.30;;
23304;SDS011;11821;51.456;8.844;2023-07-29T00:26:18;1.55;;;1.45;;
23304;SDS011;11821;51.456;8.844;2023-07-29T00:28:47;2.80;;;1.27;;
23304;SDS011;11821;51.456;8.844;2023-07-29T00:31:13;3.72;;;2.40;;
23304;SDS011;11821;51.456;8.844;2023-07-29T00:33:40;3.42;;;1.50;;
23304;SDS011;11821;51.456;8.844;2023-07-29T00:36:06;2.50;;;1.70;;
23304;SDS011;11821;51.456;8.844;2023-07-29T00:38:33;3.13;;;1.48;;
23304;SDS011;11821;51.456;8.844;2023-07-29T00:41:03;2.47;;;2.22;;
23304;SDS011;11821;51.456;8.844;2023-07-29T00:43:29;2.30;;;1.52;;
23304;SDS011;11821;51.456;8.844;2023-07-29T00:45:56;4.55;;;1.80;;
23304;SDS011;11821;51.456;8.844;2023-07-29T00:48:23;3.00;;;1.67;;
23304;SDS011;11821;51.456;8.844;2023-07-29T00:50:50;2.83;;;1.65;;
23304;SDS011;11821;51.456;8.844;2023-07-29T00:53:17;1.80;;;1.70;;
23304;SDS011;11821;51.456;8.844;2023-07-29T00:55:43;3.05;;;1.70;;
23304;SDS011;11821;51.456;8.844;2023-07-29T00:58:10;3.65;;;1.35;;
23304;SDS011;11821;51.456;8.844;2023-07-29T01:00:37;2.63;;;1.67;;
23304;SDS011;11821;51.456;8.844;2023-07-29T01:03:03;4.13;;;1.52;;
23304;SDS011;11821;51.456;8.844;2023-07-29T01:05:32;3.88;;;1.67;;
23304;SDS011;11821;51.456;8.844;2023-07-29T01:08:18;2.95;;;1.90;;
23304;SDS011;11821;51.456;8.844;2023-07-29T01:11:30;2.35;;;1.50;;
23304;SDS011;11821;51.456;8.844;2023-07-29T01:13:44;7.38;;;1.60;;
23304;SDS011;11821;51.456;8.844;2023-07-29T01:16:19;4.95;;;1.40;;
23304;SDS011;11821;51.456;8.844;2023-07-29T01:18:47;3.17;;;1.65;;
23304;SDS011;11821;51.456;8.844;2023-07-29T01:21:14;2.20;;;1.65;;
23304;SDS011;11821;51.456;8.844;2023-07-29T01:23:44;10.85;;;1.75;;
23304;SDS011;11821;51.456;8.844;2023-07-29T01:26:10;2.55;;;1.80;;
23304;SDS011;11821;51.456;8.844;2023-07-29T01:28:37;1.88;;;1.77;;
23304;SDS011;11821;51.456;8.844;2023-07-29T01:31:10;5.10;;;1.98;;
23304;SDS011;11821;51.456;8.844;2023-07-29T01:33:53;2.63;;;1.77;;
23304;SDS011;11821;51.456;8.844;2023-07-29T01:36:22;5.75;;;1.98;;
23304;SDS011;11821;51.456;8.844;2023-07-29T01:38:49;8.50;;;2.33;;
23304;SDS011;11821;51.456;8.844;2023-07-29T01:41:17;4.75;;;1.75;;
23304;SDS011;11821;51.456;8.844;2023-07-29T01:43:43;7.05;;;1.80;;
23304;SDS011;11821;51.456;8.844;2023-07-29T01:46:12;5.25;;;1.83;;
23304;SDS011;11821;51.456;8.844;2023-07-29T01:48:39;3.20;;;1.48;;
23304;SDS011;11821;51.456;8.844;2023-07-29T01:51:05;2.28;;;2.08;;
23304;SDS011;11821;51.456;8.844;2023-07-29T01:53:32;15.63;;;4.45;;
23304;SDS011;11821;51.456;8.844;2023-07-29T01:55:59;3.35;;;1.88;;
23304;SDS011;11821;51.456;8.844;2023-07-29T01:58:26;2.10;;;1.90;;
23304;SDS011;11821;51.456;8.844;2023-07-29T02:00:53;2.97;;;1.70;;
23304;SDS011;11821;51.456;8.844;2023-07-29T02:03:20;4.60;;;1.80;;
23304;SDS011;11821;51.456;8.844;2023-07-29T02:05:46;6.97;;;2.30;;
23304;SDS011;11821;51.456;8.844;2023-07-29T02:08:13;9.98;;;2.35;;
23304;SDS011;11821;51.456;8.844;2023-07-29T02:10:39;3.67;;;2.08;;
23304;SDS011;11821;51.456;8.844;2023-07-29T02:13:06;6.00;;;2.40;;
23304;SDS011;11821;51.456;8.844;2023-07-29T02:15:33;8.27;;;2.30;;
23304;SDS011;11821;51.456;8.844;2023-07-29T02:17:59;7.65;;;2.15;;
23304;SDS011;11821;51.456;8.844;2023-07-29T02:20:27;6.03;;;1.70;;
23304;SDS011;11821;51.456;8.844;2023-07-29T02:22:54;7.38;;;2.65;;
23304;SDS011;11821;51.456;8.844;2023-07-29T02:25:21;5.10;;;2.00;;
23304;SDS011;11821;51.456;8.844;2023-07-29T02:27:47;2.75;;;1.52;;
23304;SDS011;11821;51.456;8.844;2023-07-29T02:30:14;3.65;;;1.73;;
23304;SDS011;11821;51.456;8.844;2023-07-29T02:32:41;8.18;;;2.20;;
23304;SDS011;11821;51.456;8.844;2023-07-29T02:35:07;5.43;;;1.92;;
23304;SDS011;11821;51.456;8.844;2023-07-29T02:37:34;5.25;;;1.80;;
23304;SDS011;11821;51.456;8.844;2023-07-29T02:40:00;2.33;;;2.10;;
23304;SDS011;11821;51.456;8.844;2023-07-29T02:42:28;3.05;;;2.00;;
23304;SDS011;11821;51.456;8.844;2023-07-29T02:44:54;2.45;;;1.80;;
23304;SDS011;11821;51.456;8.844;2023-07-29T02:47:21;2.53;;;1.63;;
23304;SDS011;11821;51.456;8.844;2023-07-29T02:49:47;5.13;;;1.77;;
23304;SDS011;11821;51.456;8.844;2023-07-29T02:52:14;10.48;;;2.28;;
23304;SDS011;11821;51.456;8.844;2023-07-29T02:54:40;3.58;;;1.80;;
23304;SDS011;11821;51.456;8.844;2023-07-29T02:57:07;10.02;;;2.20;;
23304;SDS011;11821;51.456;8.844;2023-07-29T02:59:34;7.18;;;2.20;;
23304;SDS011;11821;51.456;8.844;2023-07-29T03:02:01;7.93;;;3.53;;
23304;SDS011;11821;51.456;8.844;2023-07-29T03:04:28;7.22;;;2.67;;
23304;SDS011;11821;51.456;8.844;2023-07-29T03:06:55;7.75;;;2.67;;
23304;SDS011;11821;51.456;8.844;2023-07-29T03:09:21;5.25;;;2.05;;
23304;SDS011;11821;51.456;8.844;2023-07-29T03:11:48;7.88;;;2.65;;
23304;SDS011;11821;51.456;8.844;2023-07-29T03:14:14;4.82;;;1.15;;
23304;SDS011;11821;51.456;8.844;2023-07-29T03:16:41;5.90;;;2.42;;
23304;SDS011;11821;51.456;8.844;2023-07-29T03:19:08;3.38;;;2.33;;
23304;SDS011;11821;51.456;8.844;2023-07-29T03:21:34;7.78;;;2.50;;
23304;SDS011;11821;51.456;8.844;2023-07-29T03:24:01;8.13;;;2.20;;
23304;SDS011;11821;51.456;8.844;2023-07-29T03:26:28;8.18;;;2.00;;
23304;SDS011;11821;51.456;8.844;2023-07-29T03:28:55;4.35;;;2.72;;
23304;SDS011;11821;51.456;8.844;2023-07-29T03:31:21;7.30;;;2.78;;
23304;SDS011;11821;51.456;8.844;2023-07-29T03:33:48;8.38;;;2.53;;
23304;SDS011;11821;51.456;8.844;2023-07-29T03:36:15;2.75;;;2.50;;
23304;SDS011;11821;51.456;8.844;2023-07-29T03:38:41;4.88;;;2.95;;
23304;SDS011;11821;51.456;8.844;2023-07-29T03:41:10;3.63;;;2.35;;
23304;SDS011;11821;51.456;8.844;2023-07-29T03:43:37;7.20;;;2.40;;
23304;SDS011;11821;51.456;8.844;2023-07-29T03:46:03;6.05;;;2.50;;
23304;SDS011;11821;51.456;8.844;2023-07-29T03:48:32;6.10;;;3.05;;
23304;SDS011;11821;51.456;8.844;2023-07-29T03:50:59;12.63;;;2.67;;
23304;SDS011;11821;51.456;8.844;2023-07-29T03:53:25;6.03;;;2.40;;
23304;SDS011;11821;51.456;8.844;2023-07-29T03:55:52;2.67;;;2.20;;
23304;SDS011;11821;51.456;8.844;2023-07-29T03:58:18;12.65;;;2.80;;
23304;SDS011;11821;51.456;8.844;2023-07-29T04:00:45;5.38;;;2.00;;
23304;SDS011;11821;51.456;8.844;2023-07-29T04:03:12;2.72;;;1.95;;
23304;SDS011;11821;51.456;8.844;2023-07-29T04:05:38;2.58;;;2.25;;
23304;SDS011;11821;51.456;8.844;2023-07-29T04:08:05;4.28;;;2.20;;
23304;SDS011;11821;51.456;8.844;2023-07-29T04:10:32;7.57;;;2.63;;
23304;SDS011;11821;51.456;8.844;2023-07-29T04:13:00;5.15;;;2.67;;
23304;SDS011;11821;51.456;8.844;2023-07-29T04:15:27;4.55;;;2.28;;
23304;SDS011;11821;51.456;8.844;2023-07-29T04:17:53;4.38;;;2.22;;
23304;SDS011;11821;51.456;8.844;2023-07-29T04:20:20;10.23;;;3.42;;
23304;SDS011;11821;51.456;8.844;2023-07-29T04:22:47;7.10;;;2.55;;
23304;SDS011;11821;51.456;8.844;2023-07-29T04:25:13;3.60;;;1.73;;
23304;SDS011;11821;51.456;8.844;2023-07-29T04:27:40;8.07;;;2.35;;
23304;SDS011;11821;51.456;8.844;2023-07-29T04:30:06;11.50;;;2.55;;
23304;SDS011;11821;51.456;8.844;2023-07-29T04:32:33;5.88;;;2.58;;
23304;SDS011;11821;51.456;8.844;2023-07-29T04:35:00;9.20;;;3.63;;
23304;SDS011;11821;51.456;8.844;2023-07-29T04:37:26;5.40;;;2.80;;
23304;SDS011;11821;51.456;8.844;2023-07-29T04:39:53;7.70;;;2.67;;
23304;SDS011;11821;51.456;8.844;2023-07-29T04:42:19;7.72;;;2.53;;
23304;SDS011;11821;51.456;8.844;2023-07-29T04:44:46;4.63;;;3.28;;
23304;SDS011;11821;51.456;8.844;2023-07-29T04:47:13;13.73;;;3.08;;
23304;SDS011;11821;51.456;8.844;2023-07-29T04:49:40;3.40;;;3.10;;
23304;SDS011;11821;51.456;8.844;2023-07-29T04:52:08;3.67;;;2.60;;
23304;SDS011;11821;51.456;8.844;2023-07-29T04:54:34;3.88;;;3.20;;
23304;SDS011;11821;51.456;8.844;2023-07-29T04:57:01;5.10;;;3.03;;
23304;SDS011;11821;51.456;8.844;2023-07-29T04:59:27;7.80;;;3.78;;
23304;SDS011;11821;51.456;8.844;2023-07-29T05:01:54;6.50;;;4.38;;
23304;SDS011;11821;51.456;8.844;2023-07-29T05:04:21;6.55;;;3.90;;
23304;SDS011;11821;51.456;8.844;2023-07-29T05:06:48;6.80;;;4.72;;
23304;SDS011;11821;51.456;8.844;2023-07-29T05:09:16;9.27;;;3.63;;
23304;SDS011;11821;51.456;8.844;2023-07-29T05:11:43;6.45;;;3.17;;
23304;SDS011;11821;51.456;8.844;2023-07-29T05:14:15;6.38;;;3.63;;
23304;SDS011;11821;51.456;8.844;2023-07-29T05:16:42;4.00;;;3.33;;
23304;SDS011;11821;51.456;8.844;2023-07-29T05:19:09;3.35;;;2.85;;
23304;SDS011;11821;51.456;8.844;2023-07-29T05:21:36;4.78;;;3.15;;
23304;SDS011;11821;51.456;8.844;2023-07-29T05:24:03;5.95;;;2.92;;
23304;SDS011;11821;51.456;8.844;2023-07-29T05:26:30;6.25;;;3.05;;
23304;SDS011;11821;51.456;8.844;2023-07-29T05:28:56;3.05;;;2.58;;
23304;SDS011;11821;51.456;8.844;2023-07-29T05:31:23;2.00;;;1.90;;
23304;SDS011;11821;51.456;8.844;2023-07-29T05:33:50;1.40;;;1.30;;
23304;SDS011;11821;51.456;8.844;2023-07-29T05:36:16;2.55;;;1.67;;
23304;SDS011;11821;51.456;8.844;2023-07-29T05:38:43;3.53;;;1.90;;
23304;SDS011;11821;51.456;8.844;2023-07-29T05:41:09;1.70;;;1.60;;
23304;SDS011;11821;51.456;8.844;2023-07-29T05:43:36;2.92;;;1.52;;
23304;SDS011;11821;51.456;8.844;2023-07-29T05:46:03;8.75;;;2.35;;
23304;SDS011;11821;51.456;8.844;2023-07-29T05:48:30;4.88;;;1.80;;
23304;SDS011;11821;51.456;8.844;2023-07-29T05:50:56;1.77;;;1.63;;
23304;SDS011;11821;51.456;8.844;2023-07-29T05:53:23;2.33;;;1.60;;
23304;SDS011;11821;51.456;8.844;2023-07-29T05:55:50;2.15;;;1.42;;
23304;SDS011;11821;51.456;8.844;2023-07-29T05:58:16;1.23;;;1.13;;
23304;SDS011;11821;51.456;8.844;2023-07-29T06:00:43;2.08;;;1.60;;
23304;SDS011;11821;51.456;8.844;2023-07-29T06:03:10;1.95;;;1.65;;
23304;SDS011;11821;51.456;8.844;2023-07-29T06:05:36;2.20;;;0.88;;
23304;SDS011;11821;51.456;8.844;2023-07-29T06:08:03;2.50;;;1.23;;
23304;SDS011;11821;51.456;8.844;2023-07-29T06:10:29;1.33;;;1.23;;
23304;SDS011;11821;51.456;8.844;2023-07-29T06:12:56;3.38;;;1.50;;
23304;SDS011;11821;51.456;8.844;2023-07-29T06:15:23;2.00;;;1.42;;
23304;SDS011;11821;51.456;8.844;2023-07-29T06:17:50;1.65;;;1.45;;
23304;SDS011;11821;51.456;8.844;2023-07-29T06:20:16;1.75;;;1.42;;
23304;SDS011;11821;51.456;8.844;2023-07-29T06:22:43;1.27;;;1.20;;
23304;SDS011;11821;51.456;8.844;2023-07-29T06:25:10;1.75;;;1.20;;
23304;SDS011;11821;51.456;8.844;2023-07-29T06:27:37;1.83;;;1.30;;
23304;SDS011;11821;51.456;8.844;2023-07-29T06:30:04;1.42;;;1.33;;
23304;SDS011;11821;51.456;8.844;2023-07-29T06:32:31;2.60;;;1.95;;
23304;SDS011;11821;51.456;8.844;2023-07-29T06:34:58;2.13;;;1.50;;
23304;SDS011;11821;51.456;8.844;2023-07-29T06:37:24;2.83;;;2.30;;
23304;SDS011;11821;51.456;8.844;2023-07-29T06:39:51;2.78;;;2.58;;
23304;SDS011;11821;51.456;8.844;2023-07-29T06:42:17;2.00;;;1.90;;
23304;SDS011;11821;51.456;8.844;2023-07-29T06:44:44;2.92;;;2.20;;
23304;SDS011;11821;51.456;8.844;2023-07-29T06:47:11;6.10;;;2.60;;
23304;SDS011;11821;51.456;8.844;2023-07-29T06:49:38;2.15;;;1.70;;
23304;SDS011;11821;51.456;8.844;2023-07-29T06:52:04;1.98;;;1.60;;
23304;SDS011;11821;51.456;8.844;2023-07-29T06:54:31;1.63;;;1.52;;
23304;SDS011;11821;51.456;8.844;2023-07-29T06:56:57;2.00;;;1.80;;
23304;SDS011;11821;51.456;8.844;2023-07-29T06:59:24;1.48;;;1.38;;
23304;SDS011;11821;51.456;8.844;2023-07-29T07:01:51;2.88;;;1.67;;
23304;SDS011;11821;51.456;8.844;2023-07-29T07:04:17;4.55;;;1.75;;
23304;SDS011;11821;51.456;8.844;2023-07-29T07:06:44;2.53;;;1.27;;
23304;SDS011;11821;51.456;8.844;2023-07-29T07:09:11;1.35;;;1.00;;
23304;SDS011;11821;51.456;8.844;2023-07-29T07:11:37;1.10;;;1.00;;
23304;SDS011;11821;51.456;8.844;2023-07-29T07:14:04;1.65;;;1.08;;
23304;SDS011;11821;51.456;8.844;2023-07-29T07:16:30;2.50;;;1.23;;
23304;SDS011;11821;51.456;8.844;2023-07-29T07:18:56;7.15;;;2.55;;
23304;SDS011;11821;51.456;8.844;2023-07-29T07:21:23;1.10;;;0.90;;
23304;SDS011;11821;51.456;8.844;2023-07-29T07:23:49;2.80;;;0.95;;
23304;SDS011;11821;51.456;8.844;2023-07-29T07:26:16;1.33;;;1.00;;
23304;SDS011;11821;51.456;8.844;2023-07-29T07:28:42;1.63;;;0.90;;
23304;SDS011;11821;51.456;8.844;2023-07-29T07:31:08;2.45;;;0.95;;
23304;SDS011;11821;51.456;8.844;2023-07-29T07:33:35;0.68;;;0.68;;
23304;SDS011;11821;51.456;8.844;2023-07-29T07:36:01;5.40;;;1.17;;
23304;SDS011;11821;51.456;8.844;2023-07-29T07:38:27;1.42;;;0.80;;
23304;SDS011;11821;51.456;8.844;2023-07-29T07:40:54;0.70;;;0.70;;
23304;SDS011;11821;51.456;8.844;2023-07-29T07:43:22;1.20;;;0.93;;
23304;SDS011;11821;51.456;8.844;2023-07-29T07:45:49;1.13;;;1.00;;
23304;SDS011;11821;51.456;8.844;2023-07-29T07:48:15;0.95;;;0.95;;
23304;SDS011;11821;51.456;8.844;2023-07-29T07:50:42;1.05;;;0.80;;
23304;SDS011;11821;51.456;8.844;2023-07-29T07:53:09;2.25;;;0.90;;
23304;SDS011;11821;51.456;8.844;2023-07-29T07:55:35;2.03;;;0.80;;
23304;SDS011;11821;51.456;8.844;2023-07-29T07:58:01;1.88;;;1.13;;
23304;SDS011;11821;51.456;8.844;2023-07-29T08:00:28;2.10;;;0.80;;
23304;SDS011;11821;51.456;8.844;2023-07-29T08:02:54;1.08;;;0.82;;
23304;SDS011;11821;51.456;8.844;2023-07-29T08:05:20;11.15;;;1.30;;
23304;SDS011;11821;51.456;8.844;2023-07-29T08:07:47;2.53;;;1.10;;
23304;SDS011;11821;51.456;8.844;2023-07-29T08:10:13;1.63;;;0.93;;
23304;SDS011;11821;51.456;8.844;2023-07-29T08:12:39;1.45;;;1.20;;
23304;SDS011;11821;51.456;8.844;2023-07-29T08:15:06;5.18;;;1.17;;
23304;SDS011;11821;51.456;8.844;2023-07-29T08:17:32;2.60;;;1.17;;
23304;SDS011;11821;51.456;8.844;2023-07-29T08:19:58;3.70;;;1.10;;
23304;SDS011;11821;51.456;8.844;2023-07-29T08:22:25;6.25;;;1.40;;
23304;SDS011;11821;51.456;8.844;2023-07-29T08:24:51;1.80;;;1.70;;
23304;SDS011;11821;51.456;8.844;2023-07-29T08:27:18;1.60;;;1.45;;
23304;SDS011;11821;51.456;8.844;2023-07-29T08:29:44;3.97;;;1.90;;
23304;SDS011;11821;51.456;8.844;2023-07-29T08:32:10;2.58;;;2.38;;
23304;SDS011;11821;51.456;8.844;2023-07-29T08:34:36;3.25;;;2.10;;
23304;SDS011;11821;51.456;8.844;2023-07-29T08:37:03;2.40;;;2.17;;
23304;SDS011;11821;51.456;8.844;2023-07-29T08:39:29;3.17;;;2.53;;
23304;SDS011;11821;51.456;8.844;2023-07-29T08:42:09;2.40;;;2.20;;
23304;SDS011;11821;51.456;8.844;2023-07-29T08:44:41;3.53;;;2.45;;
23304;SDS011;11821;51.456;8.844;2023-07-29T08:47:08;3.25;;;2.95;;
23304;SDS011;11821;51.456;8.844;2023-07-29T08:52:02;2.90;;;2.70;;
23304;SDS011;11821;51.456;8.844;2023-07-29T08:54:30;4.63;;;2.92;;
23304;SDS011;11821;51.456;8.844;2023-07-29T08:56:57;2.63;;;2.42;;
23304;SDS011;11821;51.456;8.844;2023-07-29T08:59:24;3.45;;;2.30;;
23304;SDS011;11821;51.456;8.844;2023-07-29T09:01:51;2.13;;;1.95;;
23304;SDS011;11821;51.456;8.844;2023-07-29T09:04:21;2.38;;;2.20;;
23304;SDS011;11821;51.456;8.844;2023-07-29T09:06:47;4.68;;;2.17;;
23304;SDS011;11821;51.456;8.844;2023-07-29T09:09:16;2.00;;;1.80;;
23304;SDS011;11821;51.456;8.844;2023-07-29T09:11:43;1.63;;;1.52;;
23304;SDS011;11821;51.456;8.844;2023-07-29T09:14:10;1.70;;;1.60;;
23304;SDS011;11821;51.456;8.844;2023-07-29T09:16:36;1.88;;;1.50;;
23304;SDS011;11821;51.456;8.844;2023-07-29T09:19:03;2.67;;;1.70;;
23304;SDS011;11821;51.456;8.844;2023-07-29T09:21:31;2.55;;;1.73;;
23304;SDS011;11821;51.456;8.844;2023-07-29T09:23:58;1.83;;;1.63;;
23304;SDS011;11821;51.456;8.844;2023-07-29T09:26:28;1.52;;;1.42;;
23304;SDS011;11821;51.456;8.844;2023-07-29T09:28:55;7.78;;;1.70;;
23304;SDS011;11821;51.456;8.844;2023-07-29T09:31:23;2.20;;;1.40;;
23304;SDS011;11821;51.456;8.844;2023-07-29T09:36:25;2.67;;;1.50;;
23304;SDS011;11821;51.456;8.844;2023-07-29T09:38:53;1.50;;;1.40;;
23304;SDS011;11821;51.456;8.844;2023-07-29T09:41:21;2.42;;;1.40;;
23304;SDS011;11821;51.456;8.844;2023-07-29T09:43:51;1.80;;;1.55;;
23304;SDS011;11821;51.456;8.844;2023-07-29T09:46:22;1.75;;;1.60;;
23304;SDS011;11821;51.456;8.844;2023-07-29T09:48:49;2.85;;;1.20;;
23304;SDS011;11821;51.456;8.844;2023-07-29T09:51:16;1.33;;;1.23;;
23304;SDS011;11821;51.456;8.844;2023-07-29T09:53:43;1.75;;;1.20;;
23304;SDS011;11821;51.456;8.844;2023-07-29T09:56:10;4.85;;;1.70;;
23304;SDS011;11821;51.456;8.844;2023-07-29T09:58:38;2.13;;;1.40;;
23304;SDS011;11821;51.456;8.844;2023-07-29T10:01:08;2.85;;;1.40;;
23304;SDS011;11821;51.456;8.844;2023-07-29T10:03:34;2.88;;;1.60;;
23304;SDS011;11821;51.456;8.844;2023-07-29T10:06:05;1.92;;;1.50;;
23304;SDS011;11821;51.456;8.844;2023-07-29T10:08:33;2.22;;;1.52;;
23304;SDS011;11821;51.456;8.844;2023-07-29T10:11:06;4.57;;;2.10;;
23304;SDS011;11821;51.456;8.844;2023-07-29T10:13:34;2.10;;;1.52;;
23304;SDS011;11821;51.456;8.844;2023-07-29T10:16:01;2.67;;;1.73;;
23304;SDS011;11821;51.456;8.844;2023-07-29T10:18:29;1.15;;;1.10;;
23304;SDS011;11821;51.456;8.844;2023-07-29T10:20:59;12.15;;;1.95;;
23304;SDS011;11821;51.456;8.844;2023-07-29T10:23:27;1.98;;;1.63;;
23304;SDS011;11821;51.456;8.844;2023-07-29T10:28:31;2.28;;;1.50;;
23304;SDS011;11821;51.456;8.844;2023-07-29T10:30:58;3.33;;;1.67;;
23304;SDS011;11821;51.456;8.844;2023-07-29T10:33:25;2.63;;;1.65;;
23304;SDS011;11821;51.456;8.844;2023-07-29T10:35:55;1.20;;;1.10;;
23304;SDS011;11821;51.456;8.844;2023-07-29T10:38:21;3.58;;;1.75;;
23304;SDS011;11821;51.456;8.844;2023-07-29T10:40:52;3.50;;;1.60;;
23304;SDS011;11821;51.456;8.844;2023-07-29T10:43:35;1.80;;;1.70;;
23304;SDS011;11821;51.456;8.844;2023-07-29T10:46:16;10.38;;;1.50;;
23304;SDS011;11821;51.456;8.844;2023-07-29T10:53:56;1.67;;;1.58;;
23304;SDS011;11821;51.456;8.844;2023-07-29T10:56:34;1.20;;;1.10;;
23304;SDS011;11821;51.456;8.844;2023-07-29T10:59:44;1.98;;;0.93;;
23304;SDS011;11821;51.456;8.844;2023-07-29T11:01:58;1.23;;;1.23;;
23304;SDS011;11821;51.456;8.844;2023-07-29T11:17:31;0.90;;;0.90;;
23304;SDS011;11821;51.456;8.844;2023-07-29T11:20:02;1.30;;;1.00;;
23304;SDS011;11821;51.456;8.844;2023-07-29T11:22:29;1.80;;;1.08;;
23304;SDS011;11821;51.456;8.844;2023-07-29T11:24:56;2.35;;;1.33;;
23304;SDS011;11821;51.456;8.844;2023-07-29T11:27:22;1.48;;;0.90;;
23304;SDS011;11821;51.456;8.844;2023-07-29T11:29:49;1.02;;;1.00;;
23304;SDS011;11821;51.456;8.844;2023-07-29T11:32:15;1.10;;;1.00;;
23304;SDS011;11821;51.456;8.844;2023-07-29T11:34:42;1.00;;;0.90;;
23304;SDS011;11821;51.456;8.844;2023-07-29T11:37:10;1.38;;;0.90;;
23304;SDS011;11821;51.456;8.844;2023-07-29T11:39:41;2.33;;;0.75;;
23304;SDS011;11821;51.456;8.844;2023-07-29T11:42:11;0.70;;;0.70;;
23304;SDS011;11821;51.456;8.844;2023-07-29T11:44:38;0.73;;;0.73;;
23304;SDS011;11821;51.456;8.844;2023-07-29T11:47:08;1.48;;;0.63;;
23304;SDS011;11821;51.456;8.844;2023-07-29T11:49:39;0.70;;;0.70;;
23304;SDS011;11821;51.456;8.844;2023-07-29T11:52:07;0.65;;;0.65;;
23304;SDS011;11821;51.456;8.844;2023-07-29T11:54:37;0.95;;;0.65;;
23304;SDS011;11821;51.456;8.844;2023-07-29T11:57:08;1.20;;;0.70;;
23304;SDS011;11821;51.456;8.844;2023-07-29T11:59:35;0.63;;;0.63;;
23304;SDS011;11821;51.456;8.844;2023-07-29T12:02:07;0.60;;;0.60;;
23304;SDS011;11821;51.456;8.844;2023-07-29T12:04:37;0.60;;;0.60;;
23304;SDS011;11821;51.456;8.844;2023-07-29T12:07:04;0.60;;;0.60;;
23304;SDS011;11821;51.456;8.844;2023-07-29T12:09:31;0.65;;;0.65;;
23304;SDS011;11821;51.456;8.844;2023-07-29T12:11:59;0.93;;;0.88;;
23304;SDS011;11821;51.456;8.844;2023-07-29T12:14:26;0.65;;;0.65;;
23304;SDS011;11821;51.456;8.844;2023-07-29T12:16:54;1.02;;;0.70;;
23304;SDS011;11821;51.456;8.844;2023-07-29T12:19:20;0.80;;;0.80;;
23304;SDS011;11821;51.456;8.844;2023-07-29T12:21:48;0.60;;;0.60;;
23304;SDS011;11821;51.456;8.844;2023-07-29T12:24:15;1.42;;;0.90;;
23304;SDS011;11821;51.456;8.844;2023-07-29T12:26:41;0.80;;;0.80;;
23304;SDS011;11821;51.456;8.844;2023-07-29T12:29:15;1.38;;;1.08;;
23304;SDS011;11821;51.456;8.844;2023-07-29T12:31:42;0.65;;;0.65;;
23304;SDS011;11821;51.456;8.844;2023-07-29T12:34:08;0.80;;;0.80;;
23304;SDS011;11821;51.456;8.844;2023-07-29T12:36:41;1.13;;;1.00;;
23304;SDS011;11821;51.456;8.844;2023-07-29T12:41:54;1.42;;;0.70;;
23304;SDS011;11821;51.456;8.844;2023-07-29T12:44:23;0.80;;;0.80;;
23304;SDS011;11821;51.456;8.844;2023-07-29T12:46:50;1.15;;;1.10;;
23304;SDS011;11821;51.456;8.844;2023-07-29T12:49:17;0.90;;;0.90;;
23304;SDS011;11821;51.456;8.844;2023-07-29T12:51:43;0.88;;;0.88;;
23304;SDS011;11821;51.456;8.844;2023-07-29T12:54:09;1.00;;;0.90;;
23304;SDS011;11821;51.456;8.844;2023-07-29T12:56:36;1.58;;;1.02;;
23304;SDS011;11821;51.456;8.844;2023-07-29T12:59:02;1.30;;;1.20;;
23304;SDS011;11821;51.456;8.844;2023-07-29T13:01:29;2.35;;;1.10;;
23304;SDS011;11821;51.456;8.844;2023-07-29T13:03:55;2.33;;;2.13;;
23304;SDS011;11821;51.456;8.844;2023-07-29T13:06:22;3.22;;;2.45;;
23304;SDS011;11821;51.456;8.844;2023-07-29T13:08:48;1.70;;;1.27;;
23304;SDS011;11821;51.456;8.844;2023-07-29T13:11:15;1.00;;;1.00;;
23304;SDS011;11821;51.456;8.844;2023-07-29T13:13:42;1.15;;;1.10;;
23304;SDS011;11821;51.456;8.844;2023-07-29T13:16:09;1.13;;;0.82;;
23304;SDS011;11821;51.456;8.844;2023-07-29T13:18:35;1.17;;;0.90;;
23304;SDS011;11821;51.456;8.844;2023-07-29T13:21:02;1.92;;;0.90;;
23304;SDS011;11821;51.456;8.844;2023-07-29T13:23:28;2.53;;;0.88;;
23304;SDS011;11821;51.456;8.844;2023-07-29T13:25:55;0.90;;;0.90;;
23304;SDS011;11821;51.456;8.844;2023-07-29T13:28:22;1.10;;;1.00;;
23304;SDS011;11821;51.456;8.844;2023-07-29T13:30:49;1.10;;;1.00;;
23304;SDS011;11821;51.456;8.844;2023-07-29T13:33:15;1.25;;;0.90;;
23304;SDS011;11821;51.456;8.844;2023-07-29T13:35:42;2.55;;;0.82;;
23304;SDS011;11821;51.456;8.844;2023-07-29T13:38:08;3.13;;;0.98;;
23304;SDS011;11821;51.456;8.844;2023-07-29T13:40:35;0.80;;;0.80;;
23304;SDS011;11821;51.456;8.844;2023-07-29T13:43:01;2.35;;;1.00;;
23304;SDS011;11821;51.456;8.844;2023-07-29T13:45:27;2.15;;;1.02;;
23304;SDS011;11821;51.456;8.844;2023-07-29T13:47:54;1.58;;;1.00;;
23304;SDS011;11821;51.456;8.844;2023-07-29T13:50:21;5.47;;;1.30;;
23304;SDS011;11821;51.456;8.844;2023-07-29T13:52:49;1.00;;;0.85;;
23304;SDS011;11821;51.456;8.844;2023-07-29T13:55:15;1.10;;;0.93;;
23304;SDS011;11821;51.456;8.844;2023-07-29T13:57:42;1.50;;;1.10;;
23304;SDS011;11821;51.456;8.844;2023-07-29T14:00:09;2.40;;;1.10;;
23304;SDS011;11821;51.456;8.844;2023-07-29T14:02:38;0.98;;;0.98;;
23304;SDS011;11821;51.456;8.844;2023-07-29T14:05:04;0.93;;;0.88;;
23304;SDS011;11821;51.456;8.844;2023-07-29T14:07:32;3.63;;;1.05;;
23304;SDS011;11821;51.456;8.844;2023-07-29T14:09:58;1.33;;;1.13;;
23304;SDS011;11821;51.456;8.844;2023-07-29T14:12:25;1.23;;;1.05;;
23304;SDS011;11821;51.456;8.844;2023-07-29T14:14:51;29.17;;;3.40;;
23304;SDS011;11821;51.456;8.844;2023-07-29T14:17:17;1.33;;;1.00;;
23304;SDS011;11821;51.456;8.844;2023-07-29T14:19:44;1.50;;;1.10;;
23304;SDS011;11821;51.456;8.844;2023-07-29T14:22:11;1.20;;;1.00;;
23304;SDS011;11821;51.456;8.844;2023-07-29T14:24:40;1.30;;;1.20;;
23304;SDS011;11821;51.456;8.844;2023-07-29T14:27:11;1.30;;;1.20;;
23304;SDS011;11821;51.456;8.844;2023-07-29T14:29:43;1.42;;;1.00;;
23304;SDS011;11821;51.456;8.844;2023-07-29T14:32:10;1.50;;;1.27;;
23304;SDS011;11821;51.456;8.844;2023-07-29T14:34:36;1.20;;;1.10;;
23304;SDS011;11821;51.456;8.844;2023-07-29T14:37:02;3.00;;;1.05;;
23304;SDS011;11821;51.456;8.844;2023-07-29T14:39:29;1.08;;;1.00;;
23304;SDS011;11821;51.456;8.844;2023-07-29T14:41:55;1.42;;;1.30;;
23304;SDS011;11821;51.456;8.844;2023-07-29T14:44:22;2.55;;;1.13;;
23304;SDS011;11821;51.456;8.844;2023-07-29T14:46:48;2.40;;;1.10;;
23304;SDS011;11821;51.456;8.844;2023-07-29T14:49:15;1.08;;;0.98;;
23304;SDS011;11821;51.456;8.844;2023-07-29T14:51:42;2.30;;;1.00;;
23304;SDS011;11821;51.456;8.844;2023-07-29T14:54:08;1.13;;;1.02;;
23304;SDS011;11821;51.456;8.844;2023-07-29T14:56:35;0.88;;;0.88;;
23304;SDS011;11821;51.456;8.844;2023-07-29T14:59:01;2.22;;;1.00;;
23304;SDS011;11821;51.456;8.844;2023-07-29T15:01:28;1.25;;;1.10;;
23304;SDS011;11821;51.456;8.844;2023-07-29T15:03:54;1.10;;;1.00;;
23304;SDS011;11821;51.456;8.844;2023-07-29T15:06:21;1.10;;;0.95;;
23304;SDS011;11821;51.456;8.844;2023-07-29T15:08:47;1.17;;;1.08;;
23304;SDS011;11821;51.456;8.844;2023-07-29T15:11:14;2.15;;;1.10;;
23304;SDS011;11821;51.456;8.844;2023-07-29T15:13:40;1.40;;;1.17;;
23304;SDS011;11821;51.456;8.844;2023-07-29T15:16:08;1.35;;;1.25;;
23304;SDS011;11821;51.456;8.844;2023-07-29T15:18:34;1.25;;;1.15;;